Latest Weather Observations for Kingfish B

IDV60801

Issued at 10:02 am EST Monday 25 July 2016 (issued every 30 minutes, with the page automatically refreshed every 10 minutes)

About weather observations | Map of weather stations | Latest weather observations for VIC | Other Formats
Station Details ID: 400139 Name: KINGFISH B (PLATFORM) Lat: -38.60 Lon: 148.19 Height: 31.4 m
Data from the previous 72 hours. | See also: Recent months for locations in Victoria
Date/Time
EST
Temp
°C
App
Temp
°C
Dew
Point
°C
Rel
Hum
%
Delta-T
°C
Wind Press
QNH
hPa
Press
MSL
hPa
Rain since
9am
mm
Dir  Spd
km/h
Gust
km/h
Spd
kts
Gust
kts
25/08:50am 13.1 4.5 4.5 56 3.9 W 39 50 21 27 1004.4 - -
25/08:40am 13.0 4.0 4.4 56 3.9 W 41 50 22 27 1004.3 - -
25/08:30am 13.0 4.4 4.8 57 3.8 W 39 50 21 27 1004.4 - -
25/08:20am 12.9 3.5 4.5 56 3.8 W 43 52 23 28 1004.1 - -
25/08:00am 12.6 3.2 4.7 58 3.6 W 43 52 23 28 1004.1 - -
25/07:50am 12.6 4.4 4.5 58 3.7 W 37 48 20 26 1003.9 - -
25/07:40am 12.6 4.7 4.4 57 3.7 W 35 44 19 24 1003.9 - -
25/07:30am 12.7 4.4 4.4 57 3.8 W 37 50 20 27 1003.8 - -
25/07:20am 12.6 3.9 4.0 56 3.9 W 39 46 21 25 1003.8 - -
25/07:10am 12.8 4.1 3.9 54 4.0 W 39 48 21 26 1003.7 - -
25/07:00am 12.7 4.3 3.9 55 4.0 W 37 48 20 26 1003.8 - -
25/06:50am 12.9 5.3 4.1 55 4.0 WNW 33 41 18 22 1003.7 - -
25/06:40am 12.9 5.3 3.7 53 4.1 WNW 33 41 18 22 1003.5 - -
25/06:30am 12.8 5.1 3.5 53 4.2 W 33 41 18 22 1003.2 - -
25/06:20am 13.0 5.5 3.6 53 4.2 WNW 32 39 17 21 1003.3 - -
25/06:10am 13.0 5.5 3.5 52 4.3 WNW 32 39 17 21 1003.8 - -
25/06:00am 12.7 5.2 3.5 53 4.1 WNW 32 37 17 20 1003.8 - -
25/05:50am 12.8 5.7 3.6 53 4.1 WNW 30 35 16 19 1003.7 - -
25/05:40am 12.7 5.6 3.7 54 4.0 WNW 30 35 16 19 1003.6 - -
25/05:30am 12.6 5.1 3.6 54 4.0 WNW 32 35 17 19 1003.4 - -
25/05:20am 12.6 5.5 3.7 54 4.0 WNW 30 33 16 18 1003.6 - -
25/05:10am 12.6 5.9 3.9 55 3.9 WNW 28 32 15 17 1003.6 - -
25/05:00am 12.4 6.1 3.7 55 3.9 WNW 26 35 14 19 1003.7 - -
25/04:50am 12.5 5.8 3.9 56 3.9 WNW 28 35 15 19 1003.9 - -
25/04:40am 12.3 6.0 3.8 56 3.8 WNW 26 30 14 16 1003.0 - -
25/04:30am 12.3 6.4 3.8 56 3.8 W 24 30 13 16 1002.9 - -
25/04:20am 12.4 6.5 3.9 56 3.8 WNW 24 30 13 16 1002.7 - -
25/04:10am 12.3 6.8 3.9 56 3.8 W 22 28 12 15 1003.0 - -
25/04:00am 12.3 6.8 3.9 56 3.8 W 22 28 12 15 1003.0 - -
25/03:50am 12.2 7.0 3.8 56 3.8 W 20 28 11 15 1002.7 - -
25/03:40am 12.2 7.1 4.2 58 3.6 W 20 28 11 15 1002.3 - -
25/03:30am 12.1 6.6 3.9 57 3.7 W 22 26 12 14 1002.2 - -
25/03:20am 12.1 6.5 3.6 56 3.8 W 22 28 12 15 1002.3 - -
25/03:10am 12.1 5.9 4.2 58 3.6 W 26 30 14 16 1002.3 - -
25/03:00am 12.2 6.0 4.4 59 3.5 W 26 32 14 17 1002.3 - -
25/02:50am 12.3 6.2 4.6 59 3.5 W 26 30 14 16 1002.5 - -
25/02:40am 12.5 6.3 4.4 58 3.7 W 26 32 14 17 1002.3 - -
25/02:30am 12.5 6.3 4.2 57 3.8 W 26 32 14 17 1002.2 - -
25/02:20am 12.5 7.1 4.4 58 3.7 W 22 28 12 15 1002.4 - -
25/02:10am 12.9 6.7 4.1 55 4.0 W 26 32 14 17 1002.2 - -
25/02:00am 13.2 6.6 4.4 55 4.0 WNW 28 33 15 18 1002.4 - -
25/01:50am 13.3 6.3 4.3 54 4.1 WNW 30 35 16 19 1002.3 - -
25/01:40am 13.3 6.3 4.0 53 4.2 WNW 30 33 16 18 1002.3 - -
25/01:30am 13.4 6.4 4.3 54 4.2 WNW 30 35 16 19 1002.5 - -
25/01:20am 13.2 7.1 4.7 56 3.9 WNW 26 33 14 18 1002.6 - -
25/01:10am 12.5 7.2 5.0 60 3.5 NW 22 32 12 17 1002.7 - -
25/01:00am 12.4 7.5 5.1 61 3.4 NW 20 24 11 13 1002.7 - -
25/12:50am 12.3 7.0 5.0 61 3.4 NW 22 26 12 14 1002.6 - -
25/12:40am 12.2 6.9 5.1 62 3.3 NW 22 26 12 14 1002.8 - -
25/12:30am 12.2 7.3 4.9 61 3.4 NNW 20 26 11 14 1002.3 - -
25/12:20am 11.8 6.4 4.4 60 3.3 NNW 22 28 12 15 1002.2 - -
25/12:10am 11.8 6.8 4.7 62 3.2 NNW 20 26 11 14 1002.3 - -
25/12:00am 11.5 6.6 4.2 61 3.3 N 19 22 10 12 1002.3 - -
 
Date/Time
EST
Temp
°C
App
Temp
°C
Dew
Point
°C
Rel
Hum
%
Delta-T
°C
Wind Press
QNH
hPa
Press
MSL
hPa
Rain since
9am
mm
Dir  Spd
km/h
Gust
km/h
Spd
kts
Gust
kts
24/11:50pm 11.6 6.6 4.6 62 3.2 N 20 26 11 14 1002.6 - -
24/11:40pm 11.7 7.2 4.4 61 3.3 N 17 20 9 11 1002.6 - -
24/11:30pm 11.8 7.4 4.6 61 3.3 N 17 20 9 11 1002.6 - -
24/11:20pm 11.9 7.8 4.6 61 3.3 N 15 20 8 11 1002.7 - -
24/11:10pm 11.9 7.4 4.2 59 3.5 NNW 17 22 9 12 1002.9 - -
24/11:00pm 12.4 7.9 4.3 57 3.7 NNW 17 22 9 12 1002.9 - -
24/10:50pm 12.5 7.6 4.1 56 3.8 NNW 19 24 10 13 1003.1 - -
24/10:40pm 12.6 7.5 3.9 55 3.9 NW 20 28 11 15 1003.3 - -
24/10:30pm 12.7 7.2 4.0 55 3.9 NW 22 28 12 15 1003.5 - -
24/10:20pm 12.8 7.2 3.7 54 4.1 NW 22 28 12 15 1003.4 - -
24/10:10pm 12.9 6.9 3.5 53 4.2 NW 24 28 13 15 1003.5 - -
24/10:00pm 13.3 7.5 4.2 54 4.2 NW 24 28 13 15 1003.6 - -
24/09:50pm 13.4 8.4 3.8 52 4.3 NW 19 24 10 13 1003.5 - -
24/09:40pm 13.1 8.2 4.0 54 4.1 NW 19 20 10 11 1003.3 - -
24/09:30pm 12.8 8.2 3.8 54 4.1 NW 17 20 9 11 1003.5 - -
24/09:20pm 13.0 8.8 3.9 54 4.1 NW 15 20 8 11 1003.6 - -
24/09:10pm 13.2 8.7 4.1 54 4.1 NW 17 19 9 10 1003.5 - -
24/09:00pm 12.7 9.0 4.3 56 3.8 NW 13 19 7 10 1003.5 - -
24/08:50pm 12.9 8.8 4.6 57 3.8 NW 15 19 8 10 1003.8 - -
24/08:40pm 12.9 8.5 4.9 58 3.7 NW 17 20 9 11 1003.4 - -
24/08:30pm 12.9 9.2 4.2 55 4.0 NW 13 17 7 9 1003.7 - -
24/08:20pm 12.9 9.2 4.5 56 3.8 NW 13 17 7 9 1003.8 - -
24/08:10pm 12.7 9.4 4.5 57 3.7 NNW 11 15 6 8 1003.7 - -
24/08:00pm 12.6 9.2 4.0 56 3.9 NNW 11 15 6 8 1003.5 - -
24/07:50pm 12.8 9.3 3.6 53 4.1 NNW 11 15 6 8 1003.8 - -
24/07:40pm 13.0 9.4 3.1 51 4.4 NW 11 17 6 9 1004.1 - -
24/07:30pm 13.3 9.4 3.3 50 4.5 NW 13 17 7 9 1004.1 - -
24/07:10pm 13.7 9.8 3.3 49 4.7 WNW 13 17 7 9 1004.2 - -
24/07:00pm 13.9 9.5 2.9 47 4.9 WNW 15 19 8 10 1004.2 - -
24/06:50pm 13.8 9.0 2.8 47 4.9 WNW 17 22 9 12 1004.2 - -
24/06:40pm 13.8 8.9 2.3 45 5.1 WNW 17 22 9 12 1004.2 - -
24/06:30pm 13.3 8.9 2.8 49 4.6 WNW 15 20 8 11 1004.1 - -
24/06:20pm 13.2 8.5 3.4 51 4.4 NW 17 20 9 11 1004.4 - -
24/06:10pm 13.7 8.1 3.5 50 4.6 NW 22 30 12 16 1004.2 - -
24/06:00pm 13.6 8.8 2.7 47 4.8 WNW 17 26 9 14 1004.4 - -
24/05:50pm 13.0 8.9 2.5 49 4.6 NW 13 20 7 11 1004.6 - -
24/05:40pm 12.8 9.5 2.7 50 4.4 NW 9 17 5 9 1004.6 - -
24/05:30pm 12.8 9.9 2.4 49 4.5 NW 7 9 4 5 1004.6 - -
24/05:20pm 12.7 9.4 2.5 50 4.5 NW 9 13 5 7 1004.6 - -
24/05:10pm 12.9 9.1 2.0 47 4.7 NW 11 19 6 10 1004.8 - -
24/05:00pm 13.8 9.3 2.3 45 5.1 WNW 15 22 8 12 1005.1 - -
24/04:50pm 14.0 10.3 2.3 45 5.2 W 11 17 6 9 1004.8 - -
24/04:40pm 14.0 10.2 1.6 43 5.4 WNW 11 15 6 8 1004.7 - -
24/04:30pm 13.9 9.3 1.8 44 5.3 WNW 15 22 8 12 1004.8 - -
24/04:20pm 13.8 9.6 1.5 43 5.3 WNW 13 17 7 9 1004.8 - -
24/04:10pm 13.9 8.9 1.5 43 5.4 WNW 17 20 9 11 1004.9 - -
24/04:00pm 13.6 8.6 1.3 43 5.3 NW 17 20 9 11 1005.0 - -
24/03:50pm 13.7 9.1 1.5 43 5.3 WNW 15 20 8 11 1005.3 - -
24/03:40pm 13.7 8.8 1.7 44 5.2 WNW 17 22 9 12 1005.2 - -
24/03:30pm 13.8 8.9 2.0 44 5.2 WNW 17 24 9 13 1004.8 - -
24/03:20pm 13.7 8.8 1.7 44 5.2 WNW 17 20 9 11 1004.7 - -
24/03:10pm 13.7 9.2 1.9 44 5.1 WNW 15 20 8 11 1005.0 - -
24/03:00pm 13.6 9.0 1.6 44 5.2 WNW 15 20 8 11 1005.2 - -
24/02:50pm 13.7 8.7 1.5 43 5.3 WNW 17 20 9 11 1005.3 - -
24/02:40pm 13.7 8.4 1.8 44 5.2 WNW 19 24 10 13 1005.0 - -
24/02:30pm 13.6 8.3 1.6 44 5.2 WNW 19 26 10 14 1005.2 - -
24/02:20pm 13.7 8.1 1.5 43 5.3 WNW 20 30 11 16 1005.3 - -
24/02:10pm 13.6 8.2 2.2 46 5.0 WNW 20 24 11 13 1005.6 - -
24/02:00pm 13.7 8.3 2.2 45 5.0 W 20 28 11 15 1005.9 - -
24/01:50pm 13.7 8.2 1.6 44 5.2 W 20 30 11 16 1005.8 - -
24/01:40pm 13.7 7.4 1.7 44 5.2 W 24 32 13 17 1006.0 - -
24/01:30pm 13.8 7.6 1.9 44 5.2 W 24 32 13 17 1006.0 - -
24/01:20pm 13.6 7.6 1.2 43 5.3 WNW 22 26 12 14 1006.1 - -
24/01:10pm 13.4 8.2 2.2 46 4.9 WNW 19 24 10 13 1006.0 - -
24/01:00pm 13.2 8.1 2.8 49 4.6 WNW 19 26 10 14 1006.3 - -
24/12:50pm 13.0 8.3 3.0 50 4.4 WNW 17 24 9 13 1006.3 - -
24/12:40pm 13.0 8.6 2.8 50 4.5 WNW 15 22 8 12 1006.3 - -
24/12:30pm 12.8 7.4 2.5 49 4.5 WNW 20 26 11 14 1006.6 - -
24/12:20pm 12.5 7.1 2.7 51 4.3 WNW 20 26 11 14 1006.5 - -
24/12:10pm 12.4 7.1 3.0 52 4.1 WNW 20 28 11 15 1006.7 - -
24/12:00pm 12.5 7.2 2.8 51 4.3 WNW 20 26 11 14 1006.9 - -
24/11:50am 12.5 7.1 2.6 51 4.3 WNW 20 28 11 15 1007.0 - -
24/11:40am 12.6 6.9 2.6 50 4.4 WNW 22 30 12 16 1007.2 - -
24/11:30am 12.6 6.8 2.2 49 4.5 WNW 22 32 12 17 1007.5 - -
24/11:20am 12.6 6.4 1.9 48 4.6 WNW 24 32 13 17 1007.5 - -
24/11:10am 12.5 6.0 2.5 50 4.4 WNW 26 32 14 17 1007.7 - -
24/11:00am 12.5 6.7 2.4 50 4.4 WNW 22 32 12 17 1007.6 - -
24/10:50am 12.5 6.3 2.4 50 4.4 WNW 24 32 13 17 1007.6 - -
24/10:40am 12.5 6.3 2.3 50 4.4 WNW 24 32 13 17 1007.3 - -
24/10:30am 12.5 6.0 2.4 50 4.4 WNW 26 32 14 17 1007.7 - -
24/10:20am 12.6 6.8 2.5 50 4.4 WNW 22 30 12 16 1007.9 - -
24/10:10am 12.6 6.1 2.4 50 4.4 WNW 26 32 14 17 1008.1 - -
24/10:00am 12.6 6.5 2.5 50 4.4 WNW 24 30 13 16 1008.1 - -
24/09:50am 12.7 6.6 2.7 50 4.4 WNW 24 30 13 16 1008.1 - -
24/09:40am 12.6 6.9 2.6 50 4.4 WNW 22 28 12 15 1008.2 - -
24/09:30am 12.6 6.9 2.9 51 4.3 WNW 22 28 12 15 1008.4 - -
24/09:20am 12.6 7.3 3.0 52 4.2 WNW 20 26 11 14 1008.4 - -
24/09:10am 12.3 7.0 3.0 53 4.1 WNW 20 24 11 13 1008.4 - -
24/09:00am 12.1 6.4 2.6 52 4.1 W 22 28 12 15 1008.4 - -
24/08:50am 11.9 6.2 2.7 53 4.0 W 22 30 12 16 1008.5 - -
24/08:40am 11.8 6.1 2.9 54 3.9 W 22 30 12 16 1008.4 - -
24/08:30am 11.6 5.5 2.7 54 3.9 W 24 30 13 16 1008.2 - -
24/08:20am 11.4 5.0 3.0 56 3.7 W 26 32 14 17 1008.0 - -
24/08:10am 11.4 4.5 2.8 55 3.7 W 28 35 15 19 1008.0 - -
24/08:00am 11.3 4.5 3.0 56 3.6 W 28 33 15 18 1007.9 - -
24/07:50am 11.2 4.4 3.1 57 3.5 W 28 33 15 18 1007.9 - -
24/07:40am 11.1 3.5 3.0 57 3.5 W 32 35 17 19 1007.6 - -
24/07:30am 10.9 3.7 3.1 58 3.4 W 30 35 16 19 1007.7 - -
24/07:20am 10.7 3.5 2.9 58 3.4 WSW 30 35 16 19 1007.6 - -
24/07:10am 10.6 3.0 2.8 58 3.4 WSW 32 39 17 21 1007.5 - -
24/07:00am 10.6 3.5 3.5 61 3.1 W 30 37 16 20 1007.2 - -
24/06:50am 10.6 3.9 3.8 63 3.0 WSW 28 35 15 19 1007.1 - -
24/06:40am 10.4 2.7 3.6 63 3.0 WSW 33 39 18 21 1007.1 - -
24/06:30am 10.4 2.4 3.7 63 2.9 WSW 35 43 19 23 1006.9 - -
24/06:20am 10.4 2.4 4.0 64 2.8 WSW 35 41 19 22 1007.1 - -
24/06:10am 10.4 2.8 3.9 64 2.9 WSW 33 41 18 22 1007.0 - -
24/06:00am 10.5 2.5 4.0 64 2.9 WSW 35 44 19 24 1007.4 - -
24/05:50am 10.5 2.1 3.8 63 3.0 WSW 37 44 20 24 1007.2 - -
24/05:40am 10.6 2.2 3.9 63 3.0 WSW 37 43 20 23 1007.0 - -
24/05:30am 10.6 2.3 4.1 64 2.9 WSW 37 43 20 23 1007.2 - -
24/05:20am 10.5 2.6 4.2 65 2.8 WSW 35 41 19 22 1006.7 - -
24/05:10am 10.6 2.7 4.2 64 2.9 W 35 43 19 23 1006.8 - -
24/05:00am 10.5 2.2 4.0 64 2.9 W 37 43 20 23 1006.4 - -
24/04:50am 10.7 2.8 4.3 64 2.9 WSW 35 41 19 22 1006.1 - -
24/04:40am 10.6 2.3 4.4 65 2.8 W 37 43 20 23 1005.7 - -
24/04:30am 10.7 2.9 4.7 66 2.7 WSW 35 43 19 23 1004.9 - -
24/04:20am 10.6 2.8 4.7 67 2.7 WSW 35 41 19 22 1005.1 - -
24/04:10am 10.7 2.8 4.5 65 2.8 WSW 35 41 19 22 1004.9 - -
24/04:00am 10.6 2.7 4.3 65 2.8 WSW 35 43 19 23 1004.6 - -
24/03:50am 10.5 2.6 4.1 64 2.8 WSW 35 41 19 22 1004.5 - -
24/03:40am 10.4 2.5 4.4 66 2.7 WSW 35 41 19 22 1004.0 - -
24/03:30am 10.5 3.0 4.2 65 2.8 W 33 39 18 21 1004.1 - -
24/03:20am 10.5 3.1 4.0 64 2.9 W 32 41 17 22 1004.2 - -
24/03:00am 10.3 2.9 4.1 65 2.8 W 32 37 17 20 1004.2 - -
24/02:50am 10.3 2.8 4.2 66 2.7 W 33 39 18 21 1003.8 - -
24/02:40am 10.3 2.0 4.3 66 2.7 W 37 43 20 23 1003.8 - -
24/02:30am 10.3 2.8 4.4 67 2.6 W 33 39 18 21 1003.4 - -
24/02:20am 10.3 2.8 4.7 68 2.5 W 33 39 18 21 1002.9 - -
24/02:10am 10.2 2.3 4.5 68 2.5 W 35 41 19 22 1001.5 - -
24/02:00am 10.2 2.9 4.7 68 2.5 WSW 32 39 17 21 1003.6 - -
24/01:50am 10.2 2.3 4.6 68 2.5 W 35 43 19 23 1006.5 - -
24/01:40am 10.2 2.3 4.5 68 2.5 W 35 41 19 22 1006.2 - -
24/01:30am 10.3 2.1 4.6 68 2.6 W 37 43 20 23 1005.8 - -
24/01:20am 10.3 2.0 4.4 67 2.6 W 37 44 20 24 1005.8 - -
24/01:10am 10.2 2.7 4.4 67 2.6 W 33 39 18 21 1005.7 - -
24/01:00am 10.3 2.8 4.6 68 2.6 WSW 33 41 18 22 1005.4 - -
24/12:50am 10.2 2.3 4.4 67 2.6 WSW 35 43 19 23 1005.4 - -
24/12:40am 10.2 2.0 4.7 68 2.5 WSW 37 44 20 24 1005.3 - -
24/12:30am 10.2 2.4 5.0 70 2.4 W 35 41 19 22 1005.4 - -
24/12:20am 10.2 1.7 5.0 70 2.4 WSW 39 48 21 26 1005.3 - -
24/12:10am 10.2 2.0 4.9 69 2.4 W 37 44 20 24 1005.0 - -
24/12:00am 10.1 1.9 4.7 69 2.4 W 37 44 20 24 1005.2 - -
 
Date/Time
EST
Temp
°C
App
Temp
°C
Dew
Point
°C
Rel
Hum
%
Delta-T
°C
Wind Press
QNH
hPa
Press
MSL
hPa
Rain since
9am
mm
Dir  Spd
km/h
Gust
km/h
Spd
kts
Gust
kts
23/11:50pm 9.9 2.0 4.4 68 2.4 W 35 43 19 23 1005.0 - -
23/11:40pm 10.0 1.4 4.4 68 2.5 WSW 39 48 21 26 1004.7 - -
23/11:30pm 10.3 2.1 4.6 68 2.6 WSW 37 48 20 26 1004.5 - -
23/11:20pm 10.3 4.0 4.0 65 2.8 WSW 26 37 14 20 1004.3 - -
23/11:10pm 10.1 2.5 3.0 61 3.1 SW 32 43 17 23 1004.6 - -
23/11:00pm 9.8 1.5 2.2 59 3.2 WSW 35 44 19 24 1003.8 - -
23/10:50pm 9.6 0.5 2.1 59 3.2 WSW 39 46 21 25 1003.6 - -
23/10:40pm 9.4 0.7 2.0 60 3.1 SW 37 48 20 26 1003.4 - -
23/10:30pm 9.3 -0.2 2.0 60 3.1 WSW 41 48 22 26 1003.3 - -
23/10:20pm 9.0 -0.7 3.0 66 2.6 SW 43 56 23 30 1002.8 - -
23/10:10pm 8.7 0.3 3.5 70 2.2 WSW 37 46 20 25 1003.4 - -
23/10:00pm 8.7 -0.5 3.4 69 2.3 WSW 41 54 22 29 1003.4 - -
23/09:50pm 9.8 -0.8 3.3 64 2.8 WSW 48 67 26 36 1003.4 - -
23/09:40pm 11.2 2.2 4.4 63 3.1 WSW 41 70 22 38 1002.5 - -
23/09:30pm 8.5 -0.1 2.6 66 2.5 SW 37 46 20 25 1002.6 - -
23/09:20pm 8.8 -2.2 2.8 66 2.5 SW 50 74 27 40 1003.3 - -
23/09:10pm 9.8 -2.9 2.9 62 3.0 WSW 59 76 32 41 1001.3 - -
23/09:00pm 10.0 -2.4 2.6 60 3.2 SW 57 70 31 38 1000.6 - -
23/08:50pm 9.8 -2.4 2.8 61 3.0 SW 56 69 30 37 1001.1 - -
23/08:40pm 9.2 -1.4 3.2 66 2.6 SW 48 65 26 35 1002.0 - -
23/08:30pm 9.2 -1.8 3.1 65 2.6 WSW 50 74 27 40 1001.2 - -
23/08:20pm 8.9 -2.0 3.3 68 2.4 SW 50 59 27 32 1001.3 - -
23/08:10pm 9.0 -3.3 3.1 66 2.5 SW 57 69 31 37 1002.6 - -
23/08:00pm 9.2 -3.4 3.6 68 2.4 SW 59 78 32 42 1002.0 - -
23/07:50pm 8.7 -1.9 3.2 68 2.4 SW 48 59 26 32 1002.2 - -
23/07:40pm 9.2 -4.6 3.3 66 2.5 SW 65 89 35 48 1001.6 - -
23/07:30pm 9.6 -3.0 3.4 65 2.7 SW 59 78 32 42 1002.2 - -
23/07:20pm 9.6 -2.4 3.7 66 2.6 SW 56 74 30 40 1001.3 - -
23/07:10pm 9.5 -1.9 3.1 64 2.8 WSW 52 65 28 35 1001.1 - -
23/07:00pm 9.8 -2.9 3.1 63 2.9 WSW 59 72 32 39 1000.8 - -
23/06:50pm 9.6 -2.2 3.0 63 2.8 SW 54 69 29 37 1001.1 - -
23/06:40pm 10.0 -3.1 3.0 62 3.0 SW 61 87 33 47 1001.9 - -
23/06:30pm 10.2 -1.1 3.3 62 3.0 SW 52 65 28 35 1001.0 - -
23/06:10pm 9.8 -4.5 2.8 61 3.0 SW 67 85 36 46 1002.4 - -
23/06:00pm 10.1 -2.9 3.6 64 2.8 WSW 61 83 33 45 1002.0 - -
23/05:50pm 10.3 -2.6 4.1 65 2.8 SW 61 96 33 52 1000.7 - -
23/05:40pm 10.3 -1.8 4.4 67 2.6 WSW 57 76 31 41 1000.2 - -
23/05:30pm 10.3 -2.6 4.1 65 2.8 WSW 61 76 33 41 999.9 - -
23/05:20pm 10.2 -3.5 3.6 63 2.9 WSW 65 82 35 44 998.9 - -
23/05:10pm 10.1 -3.6 4.0 66 2.7 W 65 82 35 44 999.2 - -
23/05:00pm 10.3 -3.3 4.2 66 2.7 W 65 78 35 42 999.1 - -
23/04:50pm 10.3 -1.8 4.3 66 2.7 W 57 69 31 37 999.1 - -
23/04:40pm 10.2 -2.7 4.2 66 2.7 WSW 61 76 33 41 998.5 - -
23/04:20pm 10.1 -2.9 3.7 64 2.8 WSW 61 78 33 42 998.5 - -
23/04:10pm 10.3 -4.9 2.8 59 3.2 WSW 72 91 39 49 997.6 - -
23/04:00pm 10.0 -4.8 2.8 61 3.1 WSW 70 89 38 48 997.6 - -
23/03:50pm 9.8 -4.3 3.6 65 2.7 WSW 67 95 36 51 998.1 - -
23/03:40pm 10.3 -4.2 3.5 62 3.0 WSW 69 93 37 50 997.7 - -
23/03:30pm 10.3 -3.8 3.5 62 3.0 WSW 67 78 36 42 997.9 - -
23/03:20pm 10.2 -3.2 3.5 63 2.9 WSW 63 76 34 41 997.7 - -
23/03:10pm 9.8 -3.6 3.6 65 2.7 WSW 63 72 34 39 997.9 - -
23/03:00pm 9.3 -3.7 3.5 67 2.5 W 61 78 33 42 998.2 - -
23/02:50pm 9.1 -4.3 3.4 67 2.5 W 63 80 34 43 998.0 - -
23/02:40pm 9.1 -3.9 3.5 68 2.4 WSW 61 82 33 44 997.6 - -
23/02:30pm 10.3 -5.3 3.0 60 3.2 WSW 74 102 40 55 996.8 - -
23/02:20pm 10.5 -3.4 2.6 58 3.4 WSW 65 80 35 43 996.6 - -
23/02:10pm 10.1 -4.2 2.5 59 3.2 WSW 67 82 36 44 996.4 - -
23/02:00pm 9.5 -3.2 2.8 63 2.9 WSW 59 74 32 40 997.2 - -
23/01:50pm 10.2 -4.3 3.7 64 2.9 WSW 69 107 37 58 996.5 - -
23/01:40pm 10.2 -1.9 4.0 65 2.7 WSW 57 74 31 40 996.4 - -
23/01:30pm 9.7 -1.1 3.9 67 2.5 WSW 50 67 27 36 996.6 - -
23/01:20pm 9.4 -1.8 3.8 68 2.4 SW 52 63 28 34 996.9 - -
23/01:10pm 9.3 -2.3 3.8 68 2.4 SW 54 63 29 34 997.0 - -
23/01:00pm 9.2 -2.8 3.7 68 2.4 SW 56 72 30 39 998.3 - -
23/12:50pm 9.5 -1.4 3.6 66 2.6 SW 50 69 27 37 996.9 - -
23/12:40pm 9.5 -2.2 3.5 66 2.6 SW 54 65 29 35 997.3 - -
23/12:30pm 10.4 -4.0 1.9 55 3.6 SW 67 85 36 46 996.7 - -
23/12:20pm 10.5 -4.6 1.4 53 3.8 WSW 70 87 38 47 995.6 - -
23/12:10pm 10.4 -5.4 1.8 55 3.6 WSW 74 91 40 49 995.8 - -
23/12:00pm 10.1 -4.6 2.3 58 3.3 WSW 69 93 37 50 996.2 - -
23/11:50am 10.0 -5.2 2.6 60 3.2 WSW 72 107 39 58 996.4 - -
23/11:40am 10.5 -4.8 2.5 57 3.4 WSW 72 89 39 48 994.6 - -
23/11:30am 10.7 -4.5 2.7 57 3.4 WSW 72 87 39 47 995.0 - -
23/11:10am 10.0 -2.6 3.4 63 2.9 WSW 59 72 32 39 995.8 - -
23/11:00am 10.3 -3.2 3.1 61 3.1 WSW 63 78 34 42 995.6 - -
23/10:50am 10.5 -4.3 2.8 59 3.3 WSW 70 85 38 46 995.4 - -
23/10:40am 11.1 -3.3 2.3 54 3.8 WSW 67 83 36 45 995.4 - -
23/10:30am 11.2 -2.3 2.6 55 3.7 WSW 63 83 34 45 994.9 - -
23/10:20am 11.1 -3.0 1.8 52 3.9 WSW 65 83 35 45 995.0 - -
23/10:10am 11.1 -3.0 1.3 51 4.1 WSW 65 82 35 44 995.3 - -
23/10:00am 10.9 -2.1 1.3 51 4.0 WSW 59 76 32 41 995.2 - -
23/09:50am 10.8 -2.5 1.6 53 3.9 WSW 61 80 33 43 995.0 - -
23/09:40am 10.6 -3.8 1.7 54 3.7 WSW 67 85 36 46 994.5 - -
23/09:30am 10.3 -4.1 2.1 57 3.5 WSW 67 85 36 46 994.6 - -
23/09:20am 10.6 -4.4 2.1 55 3.6 SW 70 89 38 48 994.2 - -
23/09:10am 11.0 -4.8 1.5 52 4.0 WSW 74 93 40 50 992.6 - -
23/09:00am 11.0 -4.0 2.0 54 3.8 WSW 70 91 38 49 992.1 - -
23/08:50am 10.8 -4.4 3.0 58 3.4 WSW 72 96 39 52 991.9 - -
23/08:40am 10.7 -4.7 3.7 62 3.1 WSW 74 95 40 51 991.6 - -
23/08:30am 10.4 -4.0 4.0 64 2.8 WSW 69 91 37 49 991.7 - -
23/08:20am 10.2 -3.8 4.0 65 2.7 WSW 67 82 36 44 992.4 - -
23/08:10am 9.5 -4.6 3.9 68 2.5 WSW 67 83 36 45 992.0 - -
23/08:00am 9.3 -5.5 4.8 73 2.0 WSW 72 89 39 48 992.2 - -
23/07:50am 8.8 -5.1 4.9 76 1.7 WSW 67 85 36 46 992.7 - -
23/07:40am 8.9 -4.2 5.0 76 1.7 WSW 63 87 34 47 993.0 - -
23/07:30am 8.9 -5.5 5.2 77 1.7 WSW 70 91 38 49 993.1 - -
23/07:20am 8.9 -5.4 4.8 75 1.8 WSW 69 91 37 49 993.0 - -
23/07:10am 10.4 -2.9 5.7 72 2.2 WSW 65 93 35 50 992.5 - -
23/07:00am 10.2 -1.6 5.8 74 2.0 WSW 57 70 31 38 992.3 - -
23/06:50am 9.9 -1.4 5.5 74 2.0 WSW 54 67 29 36 992.2 - -
23/06:40am 10.3 -4.0 5.7 73 2.1 WSW 70 91 38 49 991.9 - -
23/06:30am 10.5 -2.4 6.1 74 2.0 W 63 72 34 39 991.9 - -
23/06:20am 10.4 -2.1 5.9 73 2.1 WSW 61 82 33 44 991.5 - -
23/06:10am 10.5 -2.0 5.8 72 2.2 WSW 61 85 33 46 991.1 - -
23/06:00am 10.4 -2.2 5.7 72 2.2 WSW 61 74 33 40 990.9 - -
23/05:50am 10.6 -3.0 6.0 73 2.1 W 67 80 36 43 990.7 - -
23/05:40am 10.6 -1.5 5.9 73 2.2 WSW 59 72 32 39 990.6 - -
23/05:30am 10.6 -1.6 5.8 72 2.2 WSW 59 72 32 39 990.2 - -
23/05:20am 10.4 -1.2 5.7 72 2.2 WSW 56 67 30 36 990.1 - -
23/05:10am 10.3 -1.0 5.6 72 2.2 WSW 54 65 29 35 989.8 - -
23/05:00am 10.0 -1.3 5.5 73 2.1 WSW 54 65 29 35 989.6 - -
23/04:50am 9.9 -1.8 5.2 72 2.1 WSW 56 67 30 36 989.4 - -
23/04:40am 10.2 -2.4 5.6 73 2.1 SW 61 74 33 40 988.1 - -
23/04:30am 10.6 -1.2 5.9 73 2.2 SW 57 67 31 36 987.9 - -
23/04:20am 11.1 0.3 6.2 72 2.3 WSW 52 67 28 36 987.4 - -
23/04:10am 11.5 -0.2 6.2 70 2.5 WSW 57 76 31 41 987.0 - -
23/04:00am 11.9 -1.7 6.0 67 2.8 W 67 82 36 44 986.6 - -
23/03:50am 12.0 -1.3 6.0 66 2.8 W 65 82 35 44 986.9 - -
23/03:40am 12.1 -1.5 6.0 66 2.9 W 67 82 36 44 986.8 - -
23/03:30am 12.1 -1.2 6.0 66 2.9 W 65 76 35 41 986.5 - -
23/03:20am 12.0 -2.0 5.9 66 2.9 W 69 83 37 45 986.3 - -
23/03:10am 12.0 -1.6 6.0 66 2.8 W 67 80 36 43 986.6 - -
23/03:00am 12.1 -0.7 6.2 67 2.8 W 63 83 34 45 986.7 - -
23/02:50am 12.1 0.6 6.4 68 2.7 W 56 69 30 37 986.7 - -
23/02:40am 12.0 0.4 6.8 70 2.5 W 57 69 31 37 986.4 - -
23/02:30am 12.0 2.2 7.0 71 2.4 W 48 59 26 32 986.9 - -
23/02:20am 11.7 1.6 7.2 74 2.2 W 50 65 27 35 986.9 - -
23/02:10am 11.4 1.7 7.4 76 1.9 W 48 57 26 31 987.3 - -
23/02:00am 11.1 1.4 7.6 79 1.7 W 48 61 26 33 987.2 - -
23/01:50am 11.0 2.1 7.7 80 1.6 W 44 57 24 31 987.5 - -
23/01:40am 10.9 2.2 7.6 80 1.6 W 43 52 23 28 988.0 - -
23/01:30am 10.7 3.1 7.5 80 1.5 W 37 50 20 27 988.1 - -
23/01:20am 10.5 2.4 6.8 78 1.7 W 39 52 21 28 988.3 - -
23/01:10am 11.4 1.9 6.8 73 2.2 WSW 46 67 25 36 988.5 - -
23/01:00am 13.4 7.8 8.9 74 2.3 WNW 28 43 15 23 988.4 - -
23/12:50am 13.2 7.6 8.7 74 2.3 WNW 28 35 15 19 988.4 - -
23/12:40am 13.2 6.6 8.7 74 2.3 WNW 33 43 18 23 988.5 - -
23/12:30am 13.4 7.8 8.6 73 2.4 WNW 28 35 15 19 988.6 - -
23/12:20am 13.5 8.2 8.6 72 2.5 WNW 26 35 14 19 989.1 - -
23/12:10am 13.5 7.8 8.3 71 2.6 WNW 28 35 15 19 989.2 - -
23/12:00am 13.6 7.1 8.3 70 2.6 WNW 32 43 17 23 989.1 - -
 
Date/Time
EST
Temp
°C
App
Temp
°C
Dew
Point
°C
Rel
Hum
%
Delta-T
°C
Wind Press
QNH
hPa
Press
MSL
hPa
Rain since
9am
mm
Dir  Spd
km/h
Gust
km/h
Spd
kts
Gust
kts
22/11:50pm 13.6 6.5 8.2 70 2.7 WNW 35 43 19 23 989.3 - -
22/11:40pm 13.6 6.1 8.1 69 2.7 WNW 37 48 20 26 989.1 - -
22/11:30pm 13.7 5.5 8.1 69 2.8 WNW 41 46 22 25 989.1 - -
22/11:20pm 13.7 5.9 8.3 70 2.7 WNW 39 48 21 26 989.2 - -
22/11:10pm 13.7 6.6 8.2 69 2.7 WNW 35 43 19 23 989.4 - -
22/11:00pm 13.7 6.6 8.2 69 2.7 WNW 35 41 19 22 989.6 - -
22/10:50pm 13.7 7.0 8.1 69 2.8 WNW 33 39 18 21 989.4 - -
22/10:40pm 13.7 7.6 8.3 70 2.7 WNW 30 43 16 23 989.5 - -
22/10:30pm 13.8 8.4 8.1 68 2.8 WNW 26 33 14 18 989.8 - -
22/10:20pm 13.9 8.9 8.2 68 2.8 WNW 24 30 13 16 989.8 - -
22/10:10pm 14.2 9.0 8.8 70 2.7 WNW 26 30 14 16 990.1 - -
22/10:00pm 13.9 8.4 9.0 72 2.5 WNW 28 35 15 19 990.6 - -
22/09:50pm 13.7 7.4 8.8 72 2.5 WNW 32 37 17 20 990.9 - -
22/09:40pm 13.5 7.5 8.7 73 2.4 WNW 30 37 16 20 990.8 - -
22/09:30pm 13.4 8.1 8.5 72 2.5 WNW 26 33 14 18 990.8 - -
22/09:10pm 13.1 7.4 8.5 73 2.3 WNW 28 33 15 18 990.9 - -
22/09:00pm 12.9 8.4 8.4 74 2.2 WNW 22 28 12 15 990.8 - -
22/08:50pm 12.7 6.6 8.3 74 2.2 W 30 37 16 20 990.9 - -
22/08:40pm 12.9 6.5 8.5 74 2.2 W 32 37 17 20 991.4 - -
22/08:30pm 13.1 6.5 8.6 74 2.3 W 33 43 18 23 991.7 - -
22/08:20pm 13.4 6.9 8.9 74 2.3 WNW 33 39 18 21 991.7 - -
22/08:10pm 13.5 7.1 9.2 75 2.2 WNW 33 41 18 22 991.8 - -
22/08:00pm 13.6 7.8 9.6 77 2.1 WNW 30 39 16 21 991.6 - -
22/07:50pm 13.3 7.5 9.4 77 2.0 WNW 30 35 16 19 991.8 - -
22/07:40pm 13.4 7.2 9.5 77 2.0 WNW 32 37 17 20 992.0 - -
22/07:30pm 13.4 7.9 9.3 76 2.1 W 28 35 15 19 992.4 - -
22/07:20pm 13.5 7.3 9.2 75 2.2 WNW 32 37 17 20 992.3 - -
22/07:10pm 13.6 7.4 9.3 75 2.2 WNW 32 35 17 19 992.1 - -
22/07:00pm 13.8 6.6 9.3 74 2.3 WNW 37 44 20 24 992.2 - -
22/06:50pm 13.9 6.7 9.3 74 2.3 WNW 37 44 20 24 992.2 - -
22/06:40pm 13.9 7.1 9.3 74 2.3 WNW 35 43 19 23 992.3 - -
22/06:30pm 13.9 7.4 9.1 73 2.4 W 33 39 18 21 992.2 - -
22/06:20pm 13.9 7.6 9.0 72 2.5 W 32 39 17 21 992.3 - -
22/06:10pm 13.9 7.6 8.9 72 2.5 WNW 32 37 17 20 992.4 - -
22/06:00pm 14.0 7.6 8.7 70 2.7 W 32 37 17 20 992.2 - -
22/05:50pm 14.0 8.0 8.7 70 2.7 W 30 37 16 20 992.1 - -
22/05:40pm 14.0 8.4 8.7 70 2.7 W 28 33 15 18 992.3 - -
22/05:30pm 14.0 8.0 8.7 70 2.7 W 30 41 16 22 992.4 - -
22/05:20pm 14.0 7.6 8.7 70 2.7 W 32 39 17 21 992.3 - -
22/05:10pm 13.9 7.3 8.7 71 2.6 W 33 43 18 23 992.1 - -
22/05:00pm 13.9 7.0 8.8 71 2.6 W 35 43 19 23 992.2 - -
22/04:50pm 13.9 7.4 8.9 72 2.5 W 33 43 18 23 992.0 - -
22/04:40pm 13.8 7.3 8.9 72 2.5 W 33 43 18 23 991.8 - -
22/04:30pm 13.7 6.8 8.9 73 2.4 W 35 44 19 24 991.6 - -
22/04:20pm 13.6 6.7 8.9 73 2.4 W 35 44 19 24 991.7 - -
22/04:10pm 13.5 6.6 8.9 74 2.3 W 35 44 19 24 991.5 - -
22/04:00pm 13.4 5.8 8.9 74 2.3 WSW 39 50 21 27 991.4 - -
22/03:50pm 13.4 5.4 8.9 74 2.3 WSW 41 56 22 30 991.2 - -
22/03:40pm 13.5 4.5 8.8 73 2.4 WSW 46 56 25 30 990.9 - -
22/03:30pm 13.6 4.2 8.7 72 2.5 WSW 48 59 26 32 990.9 - -
22/03:20pm 13.7 3.5 8.4 70 2.7 WSW 52 67 28 36 990.5 - -
22/03:10pm 14.2 2.2 8.3 67 3.0 WSW 61 72 33 39 990.2 - -
22/03:00pm 14.8 3.3 8.5 66 3.2 WSW 59 78 32 42 990.3 - -
22/02:50pm 15.8 8.5 10.1 69 3.0 WSW 39 76 21 41 991.1 - -
22/02:40pm 15.9 10.8 10.6 71 2.8 W 28 33 15 18 991.0 - -
22/02:30pm 15.9 10.5 10.8 71 2.7 W 30 37 16 20 990.9 - -
22/02:20pm 16.0 11.0 11.1 72 2.6 W 28 33 15 18 990.8 - -
22/02:10pm 16.0 11.5 11.3 73 2.5 W 26 30 14 16 991.0 - -
22/02:00pm 16.1 12.0 11.4 73 2.5 W 24 30 13 16 991.1 - -
22/01:50pm 16.1 11.6 11.5 74 2.5 W 26 33 14 18 990.9 - -
22/01:40pm 16.1 10.9 11.5 74 2.5 W 30 35 16 19 990.9 - -
22/01:30pm 16.2 11.0 11.5 73 2.5 W 30 37 16 20 990.9 - -
22/01:20pm 16.3 10.5 11.4 73 2.6 W 33 39 18 21 991.1 - -
22/01:10pm 16.3 10.4 11.3 72 2.7 W 33 41 18 22 991.0 - -
22/01:00pm 16.4 10.5 11.2 71 2.8 W 33 44 18 24 990.8 - -
22/12:50pm 16.4 8.9 11.0 70 2.9 W 41 48 22 26 990.9 - -
22/12:40pm 16.3 9.2 11.0 71 2.8 W 39 50 21 27 990.8 - -
22/12:30pm 16.4 10.1 11.0 70 2.9 WSW 35 46 19 25 991.0 - -
22/12:20pm 16.4 9.7 10.9 70 2.9 W 37 48 20 26 991.0 - -
22/12:10pm 16.6 8.7 10.7 68 3.1 W 43 54 23 29 991.3 - -
22/12:00pm 16.6 6.9 10.6 67 3.2 W 52 63 28 34 990.8 - -
22/11:50am 16.8 6.1 10.4 66 3.4 W 57 78 31 42 990.8 - -
22/11:40am 16.9 5.5 10.6 66 3.4 W 61 72 33 39 990.8 - -
22/11:30am 16.7 6.5 11.9 73 2.6 W 57 76 31 41 991.2 - -
22/11:20am 16.5 10.4 13.0 80 2.0 WNW 37 65 20 35 992.1 - -
22/11:10am 16.4 12.8 13.0 80 1.9 WNW 24 33 13 18 992.7 - -
22/11:00am 16.7 13.2 13.3 80 1.9 WNW 24 30 13 16 993.2 - -
22/10:50am 16.6 12.4 13.5 82 1.7 WNW 28 33 15 18 993.5 - -
22/10:40am 16.2 12.7 13.4 83 1.6 WNW 24 37 13 20 993.9 - -
22/10:30am 16.0 12.8 13.1 83 1.6 WNW 22 28 12 15 994.5 - -
22/10:20am 16.1 13.0 13.3 83 1.6 WNW 22 32 12 17 994.7 - -
22/10:10am 15.8 12.6 13.0 83 1.6 NW 22 30 12 16 995.1 - -

Other Formats:

Comma delimited format used in spreadsheet applications
http://www.bom.gov.au/fwo/IDV60801/IDV60801.55039.axf

JavaScript Object Notation format (JSON) in row-major order
http://www.bom.gov.au/fwo/IDV60801/IDV60801.55039.json